Time;durP1;ratioP1;P1;durP2;ratioP2;P2;SDS_P1;SDS_P2;PMS_P1;PMS_P2;Temp;Humidity;BMP_temperature;BMP_pressure;BME280_temperature;BME280_humidity;BME280_pressure;Samples;Min_cycle;Max_cycle;Signal;HPM_P1;HPM_P2
2022/11/07 00:01:50;;;;;;;1.75;1.13;;;;;;;10.33;47.92;100549.19;4954552;23;20095;-80
2022/11/07 00:04:18;;;;;;;3.00;1.10;;;;;;;10.34;48.37;100550.03;4939338;29;20058;-79
2022/11/07 00:06:46;;;;;;;2.30;1.10;;;;;;;10.36;48.54;100548.03;4935111;29;20055;-80
2022/11/07 00:09:14;;;;;;;2.03;0.95;;;;;;;10.35;48.09;100552.66;4950753;28;20043;-79
2022/11/07 00:11:42;;;;;;;1.83;1.00;;;;;;;10.37;48.37;100558.84;4932620;28;20053;-80
2022/11/07 00:14:11;;;;;;;2.45;0.90;;;;;;;10.38;48.21;100560.59;4928548;29;20055;-80
2022/11/07 00:16:41;;;;;;;1.98;1.10;;;;;;;10.39;48.07;100567.78;4926433;29;20570;-80
2022/11/07 00:19:09;;;;;;;2.33;1.20;;;;;;;10.38;48.20;100574.25;4926474;29;20047;-80
2022/11/07 00:21:37;;;;;;;2.45;1.20;;;;;;;10.39;48.14;100572.38;4931642;29;20063;-80
2022/11/07 00:24:06;;;;;;;1.88;1.00;;;;;;;10.39;48.34;100581.47;4927131;29;20051;-80
2022/11/07 00:26:34;;;;;;;1.67;1.02;;;;;;;10.40;47.96;100580.44;4944365;28;20036;-79
2022/11/07 00:29:02;;;;;;;1.92;1.20;;;;;;;10.39;48.22;100578.72;4942232;28;20047;-80
2022/11/07 00:31:30;;;;;;;1.95;1.27;;;;;;;10.39;48.06;100581.47;4928283;29;20048;-80
2022/11/07 00:34:00;;;;;;;2.47;1.15;;;;;;;10.41;48.19;100575.81;4933248;29;20055;-80
2022/11/07 00:36:28;;;;;;;1.63;0.93;;;;;;;10.42;48.29;100591.25;4938854;29;20054;-79
2022/11/07 00:38:57;;;;;;;2.00;1.00;;;;;;;10.40;48.54;100588.63;4921640;29;20052;-80
2022/11/07 00:41:25;;;;;;;1.83;1.10;;;;;;;10.39;48.06;100589.66;4935647;28;20055;-80
2022/11/07 00:43:53;;;;;;;0.75;0.73;;;;;;;10.39;48.25;100586.06;4937426;29;20434;-79
2022/11/07 00:46:21;;;;;;;3.25;1.10;;;;;;;10.40;48.31;100596.84;4933009;29;20039;-80
2022/11/07 00:48:49;;;;;;;1.95;0.95;;;;;;;10.40;48.17;100596.84;4933427;29;20543;-79
2022/11/07 00:51:21;;;;;;;2.17;1.00;;;;;;;10.43;48.39;100585.63;4933279;29;20102;-80
2022/11/07 00:53:49;;;;;;;1.80;1.00;;;;;;;10.40;48.00;100577.69;4935525;29;20075;-80
2022/11/07 00:56:19;;;;;;;1.35;0.90;;;;;;;10.42;48.04;100591.25;4931443;29;20048;-80
2022/11/07 00:58:47;;;;;;;1.70;0.85;;;;;;;10.41;48.05;100589.50;4936342;29;20052;-80
2022/11/07 01:01:18;;;;;;;1.55;0.80;;;;;;;10.41;48.38;100590.38;4932237;29;20103;-80
2022/11/07 01:06:37;;;;;;;2.25;0.95;;;;;;;10.40;48.59;100596.84;4936392;28;20054;-80
2022/11/07 01:09:06;;;;;;;2.20;0.80;;;;;;;10.37;47.90;100579.88;4928612;29;20054;-81
2022/11/07 01:11:35;;;;;;;2.15;0.82;;;;;;;10.39;48.15;100586.94;4924128;29;20052;-80
2022/11/07 01:14:03;;;;;;;1.35;0.80;;;;;;;10.39;48.15;100586.06;4926695;29;20110;-80
2022/11/07 01:16:34;;;;;;;1.17;0.70;;;;;;;10.38;48.55;100593.41;4928587;29;20051;-80
2022/11/07 01:19:02;;;;;;;2.38;1.88;;;;;;;10.38;48.19;100592.53;4944804;29;20048;-80
2022/11/07 01:21:30;;;;;;;1.90;1.08;;;;;;;10.37;48.31;100599.00;4930495;29;20048;-80
2022/11/07 01:24:02;;;;;;;1.35;0.90;;;;;;;10.37;48.46;100591.69;4951570;29;20146;-80
2022/11/07 01:26:30;;;;;;;1.10;0.80;;;;;;;10.35;48.56;100592.81;4934152;29;20257;-80
2022/11/07 01:28:58;;;;;;;1.77;0.95;;;;;;;10.36;48.27;100592.69;4951409;29;20059;-80
2022/11/07 01:31:26;;;;;;;2.03;0.93;;;;;;;10.35;48.23;100590.94;4945128;29;20044;-80
2022/11/07 01:33:54;;;;;;;1.98;1.10;;;;;;;10.35;48.54;100588.22;4936480;29;20111;-80
2022/11/07 01:36:22;;;;;;;0.95;0.70;;;;;;;10.34;48.34;100586.47;4934646;28;20050;-80
2022/11/07 01:38:50;;;;;;;4.00;1.15;;;;;;;10.34;48.38;100589.22;4928541;29;20697;-80
2022/11/07 01:41:23;;;;;;;2.10;1.00;;;;;;;10.36;48.38;100589.06;4931939;29;20103;-80
2022/11/07 01:44:01;;;;;;;1.33;0.82;;;;;;;10.34;48.75;100589.22;4935187;29;20070;-80
2022/11/07 01:46:32;;;;;;;1.25;0.93;;;;;;;10.34;48.58;100588.34;4951498;28;20055;-80
2022/11/07 01:49:07;;;;;;;2.20;1.00;;;;;;;10.34;48.56;100589.22;4928214;29;20111;-81
2022/11/07 01:51:39;;;;;;;2.00;0.82;;;;;;;10.33;48.54;100595.69;4944961;28;20071;-80
2022/11/07 01:54:07;;;;;;;2.00;0.98;;;;;;;10.32;48.52;100584.91;4926649;29;20075;-80
2022/11/07 01:56:39;;;;;;;2.58;0.98;;;;;;;10.32;48.43;100584.91;4934144;29;20066;-81
2022/11/07 01:59:10;;;;;;;3.67;1.00;;;;;;;10.29;48.48;100582.44;4936563;29;20055;-80
2022/11/07 02:01:38;;;;;;;2.55;0.93;;;;;;;10.28;48.40;100578.84;4930805;29;20110;-80
2022/11/07 02:04:07;;;;;;;8.40;1.27;;;;;;;10.29;48.63;100577.81;4932398;28;20067;-80
2022/11/07 02:06:42;;;;;;;2.53;0.90;;;;;;;10.29;48.86;100577.81;4941064;29;20032;-80
2022/11/07 02:09:10;;;;;;;1.20;0.90;;;;;;;10.27;48.75;100584.44;4926536;29;20040;-80
2022/11/07 02:11:39;;;;;;;1.77;0.93;;;;;;;10.26;48.98;100577.22;4929396;29;20044;-78
2022/11/07 02:14:07;;;;;;;2.28;1.00;;;;;;;10.26;48.34;100580.84;4926497;29;20048;-79
2022/11/07 02:16:36;;;;;;;1.33;1.00;;;;;;;10.25;48.95;100581.84;4929274;29;20091;-80
2022/11/07 02:19:08;;;;;;;2.60;1.00;;;;;;;10.26;48.67;100588.16;4931001;29;20047;-79
2022/11/07 02:21:46;;;;;;;2.47;0.93;;;;;;;10.24;49.23;100588.31;4933855;28;20461;-80
2022/11/07 02:24:25;;;;;;;2.22;0.90;;;;;;;10.26;49.25;100586.31;4926890;29;20439;-81
2022/11/07 02:26:54;;;;;;;1.92;1.02;;;;;;;10.23;48.85;100586.59;4943993;28;20078;-79
2022/11/07 02:29:24;;;;;;;3.80;1.10;;;;;;;10.24;49.16;100585.56;4926538;29;20063;-80
2022/11/07 02:32:01;;;;;;;2.13;1.00;;;;;;;10.26;49.25;100594.50;4933389;29;20055;-80
2022/11/07 02:34:29;;;;;;;2.28;1.10;;;;;;;10.23;48.79;100589.34;4933936;29;20047;-79
2022/11/07 02:36:59;;;;;;;2.28;1.10;;;;;;;10.24;48.85;100594.63;4930839;29;20463;-80
2022/11/07 02:39:29;;;;;;;2.30;1.00;;;;;;;10.24;48.54;100588.31;4948625;29;20043;-80
2022/11/07 02:41:59;;;;;;;1.77;0.85;;;;;;;10.23;48.86;100594.81;4929582;29;20079;-80
2022/11/07 02:44:29;;;;;;;3.72;1.33;;;;;;;10.23;48.82;100584.69;4941418;29;20055;-79
2022/11/07 02:46:57;;;;;;;1.70;1.02;;;;;;;10.21;49.04;100589.47;4932074;29;20048;-80
2022/11/07 02:49:25;;;;;;;2.63;0.98;;;;;;;10.22;49.08;100590.34;4943993;29;20051;-79
2022/11/07 02:51:52;;;;;;;2.28;1.02;;;;;;;10.21;48.83;100594.06;4933999;28;20083;-78
2022/11/07 02:54:20;;;;;;;2.20;1.20;;;;;;;10.21;48.72;100588.59;4934016;29;20052;-79
2022/11/07 02:56:49;;;;;;;1.85;0.90;;;;;;;10.22;48.91;100587.59;4932458;29;20055;-80
2022/11/07 02:59:17;;;;;;;1.30;1.00;;;;;;;10.20;48.69;100589.59;4945587;29;20040;-79
2022/11/07 03:01:51;;;;;;;2.78;1.02;;;;;;;10.20;49.08;100592.34;4935165;29;20084;-81
2022/11/07 03:04:19;;;;;;;1.88;1.10;;;;;;;10.21;49.14;100588.59;4930831;29;20522;-81
2022/11/07 03:06:47;;;;;;;3.60;1.30;;;;;;;10.20;48.75;100586.88;4932053;29;20073;-81
2022/11/07 03:09:14;;;;;;;2.28;1.10;;;;;;;10.19;49.15;100593.34;4929750;29;20463;-81
2022/11/07 03:11:42;;;;;;;3.35;1.20;;;;;;;10.19;49.10;100599.66;4929196;29;20052;-82
2022/11/07 03:14:11;;;;;;;2.92;1.20;;;;;;;10.20;49.12;100597.81;4932140;29;20047;-81
2022/11/07 03:16:39;;;;;;;1.90;1.00;;;;;;;10.18;48.81;100608.88;4942660;28;20048;-81
2022/11/07 03:19:07;;;;;;;2.13;1.17;;;;;;;10.19;48.80;100602.41;4942579;29;20056;-79
2022/11/07 03:21:35;;;;;;;2.60;1.10;;;;;;;10.18;48.93;100600.66;4934023;29;20044;-81
2022/11/07 03:24:03;;;;;;;1.58;1.02;;;;;;;10.17;49.02;100598.94;4919182;29;20055;-81
2022/11/07 03:26:31;;;;;;;2.88;1.20;;;;;;;10.19;49.01;100604.28;4940802;28;20047;-81
2022/11/07 03:28:59;;;;;;;2.63;1.25;;;;;;;10.18;49.37;100608.88;4929815;29;20039;-81
2022/11/07 03:31:28;;;;;;;2.70;1.23;;;;;;;10.18;48.94;100608.00;4931842;29;20050;-81
2022/11/07 03:33:55;;;;;;;3.38;1.30;;;;;;;10.16;49.25;100608.13;4930481;28;20074;-81
2022/11/07 03:36:23;;;;;;;2.67;1.27;;;;;;;10.16;49.20;100604.53;4927720;29;20059;-82
2022/11/07 03:38:51;;;;;;;2.33;1.00;;;;;;;10.14;49.00;100604.69;4919908;29;20295;-80
2022/11/07 03:41:19;;;;;;;3.92;1.10;;;;;;;10.12;48.80;100603.09;4944256;29;20095;-81
2022/11/07 03:43:47;;;;;;;3.35;1.50;;;;;;;10.10;48.67;100611.44;4931957;29;20043;-81
2022/11/07 03:46:16;;;;;;;2.75;1.23;;;;;;;10.08;48.90;100607.09;4946757;28;20067;-80
2022/11/07 03:48:45;;;;;;;2.75;1.27;;;;;;;10.05;48.79;100612.84;4931879;29;20080;-81
2022/11/07 03:51:13;;;;;;;1.73;1.20;;;;;;;10.01;48.51;100612.25;4930292;29;20055;-81
2022/11/07 03:53:41;;;;;;;2.03;1.13;;;;;;;9.97;48.45;100613.53;4923876;29;20048;-81
2022/11/07 03:56:12;;;;;;;2.15;1.40;;;;;;;9.96;48.89;100614.53;4933212;29;20052;-81
2022/11/07 03:58:40;;;;;;;2.95;1.20;;;;;;;9.93;48.91;100616.66;4931298;29;20098;-81
2022/11/07 04:01:09;;;;;;;1.95;1.20;;;;;;;9.90;48.93;100617.84;4928021;29;20043;-81
2022/11/07 04:03:37;;;;;;;2.70;1.30;;;;;;;9.90;48.71;100633.38;4933303;29;20050;-80
2022/11/07 04:06:07;;;;;;;3.17;1.60;;;;;;;9.90;48.92;100627.91;4932707;28;20099;-80
2022/11/07 04:08:35;;;;;;;2.10;1.23;;;;;;;9.86;49.12;100630.03;4946429;28;20043;-81
2022/11/07 04:11:02;;;;;;;2.55;1.30;;;;;;;9.83;49.10;100630.28;4927301;29;20044;-80
2022/11/07 04:19:04;;;;;;;2.63;1.27;;;;;;;9.75;49.22;100635.56;4928314;29;20422;-81
2022/11/07 04:21:33;;;;;;;2.42;1.27;;;;;;;9.75;49.03;100630.97;4930090;29;20798;-81
2022/11/07 04:24:01;;;;;;;3.40;1.40;;;;;;;9.72;49.21;100628.50;4934308;29;20447;-81
2022/11/07 04:29:14;;;;;;;2.53;1.30;;;;;;;9.69;49.44;100623.31;4949260;29;20047;-81
2022/11/07 04:31:42;;;;;;;4.38;1.60;;;;;;;9.69;49.56;100634.25;4925690;29;20174;-80
2022/11/07 04:34:10;;;;;;;4.45;1.80;;;;;;;9.67;49.54;100632.63;4925677;29;20182;-80
2022/11/07 04:36:39;;;;;;;3.22;1.40;;;;;;;9.68;49.58;100623.44;4930652;29;20075;-80
2022/11/07 04:39:07;;;;;;;2.17;1.13;;;;;;;9.66;49.16;100629.03;4928274;29;20103;-81
2022/11/07 04:41:34;;;;;;;3.88;1.55;;;;;;;9.66;49.57;100620.81;4931684;28;20055;-81
2022/11/07 04:44:02;;;;;;;3.50;1.67;;;;;;;9.67;49.52;100624.44;4929434;29;20052;-81
2022/11/07 04:46:30;;;;;;;2.92;1.42;;;;;;;9.67;49.80;100628.03;4931713;29;20044;-81
2022/11/07 04:48:58;;;;;;;3.42;1.50;;;;;;;9.67;49.57;100629.91;4935360;29;20091;-81
2022/11/07 04:51:26;;;;;;;4.25;1.70;;;;;;;9.67;49.70;100633.50;4929184;29;20047;-80
2022/11/07 04:53:55;;;;;;;2.88;1.58;;;;;;;9.67;49.77;100619.84;4932597;29;20052;-80
2022/11/07 04:56:22;;;;;;;3.78;1.63;;;;;;;9.67;49.91;100621.69;4931848;28;20111;-81
2022/11/07 04:58:50;;;;;;;3.30;1.70;;;;;;;9.67;49.86;100625.31;4926620;29;20448;-82
2022/11/07 05:01:18;;;;;;;3.95;1.80;;;;;;;9.67;49.72;100625.31;4927353;29;20040;-79
2022/11/07 05:03:46;;;;;;;3.50;1.58;;;;;;;9.67;49.59;100618.97;4948236;29;20094;-81
2022/11/07 05:06:14;;;;;;;4.80;2.00;;;;;;;9.69;49.89;100616.97;4925749;28;20642;-80
2022/11/07 05:08:42;;;;;;;5.70;1.92;;;;;;;9.69;50.18;100614.25;4938371;28;20074;-81
2022/11/07 05:11:11;;;;;;;4.47;1.40;;;;;;;9.71;50.14;100623.19;4931439;28;20134;-81
2022/11/07 05:13:39;;;;;;;3.45;1.70;;;;;;;9.70;49.67;100624.19;4943210;29;20040;-80
2022/11/07 05:16:15;;;;;;;3.97;1.77;;;;;;;9.73;50.41;100621.19;4929566;29;20079;-81
2022/11/07 05:18:44;;;;;;;6.28;2.28;;;;;;;9.70;49.95;100625.03;4927772;29;20059;-80
2022/11/07 05:21:14;;;;;;;3.40;1.88;;;;;;;9.71;50.04;100624.03;4923068;29;20527;-81
2022/11/07 05:23:41;;;;;;;5.80;1.88;;;;;;;9.72;49.96;100620.31;4938110;28;20044;-81
2022/11/07 05:26:10;;;;;;;3.60;1.63;;;;;;;9.73;50.09;100629.38;4920353;29;20095;-80
2022/11/07 05:28:40;;;;;;;4.93;1.60;;;;;;;9.72;50.22;100625.78;4948322;28;20495;-80
2022/11/07 05:31:11;;;;;;;3.67;1.40;;;;;;;9.73;50.15;100622.06;4929316;29;20103;-80
2022/11/07 05:33:39;;;;;;;4.93;1.60;;;;;;;9.75;50.13;100622.75;4927237;29;20040;-81
2022/11/07 05:36:11;;;;;;;5.43;1.52;;;;;;;9.78;50.25;100621.63;4929813;29;20051;-80
2022/11/07 05:38:40;;;;;;;3.83;1.33;;;;;;;9.76;49.85;100631.81;4923402;29;20051;-81
2022/11/07 05:41:08;;;;;;;4.35;1.70;;;;;;;9.78;49.78;100636.16;4930634;29;20379;-81
2022/11/07 05:43:38;;;;;;;4.53;1.65;;;;;;;9.80;49.87;100636.03;4934125;29;20131;-80
2022/11/07 05:46:06;;;;;;;2.60;1.27;;;;;;;9.78;50.17;100630.69;4928659;29;20040;-79
2022/11/07 05:48:35;;;;;;;3.00;1.50;;;;;;;9.80;50.06;100627.84;4933674;29;20137;-81
2022/11/07 05:51:03;;;;;;;2.22;1.30;;;;;;;9.80;50.04;100634.16;4920725;29;20467;-81
2022/11/07 05:53:31;;;;;;;3.70;1.23;;;;;;;9.81;49.97;100641.38;4931260;29;20044;-81
2022/11/07 05:55:59;;;;;;;4.43;1.45;;;;;;;9.83;50.23;100630.28;4932602;29;20048;-81
2022/11/07 05:58:27;;;;;;;3.10;1.38;;;;;;;9.83;50.23;100642.09;4929508;29;20052;-80
2022/11/07 06:01:00;;;;;;;2.72;1.40;;;;;;;9.87;50.26;100642.69;4942966;23;20578;-81
2022/11/07 06:03:28;;;;;;;3.85;1.40;;;;;;;9.84;50.12;100641.09;4936882;29;20075;-79
2022/11/07 06:05:56;;;;;;;3.95;1.40;;;;;;;9.85;50.02;100642.81;4951940;28;20043;-81
2022/11/07 06:08:24;;;;;;;3.58;1.60;;;;;;;9.86;49.90;100640.94;4934004;29;20054;-80
2022/11/07 06:10:52;;;;;;;3.50;1.48;;;;;;;9.87;49.84;100641.81;4880189;29;20151;-81
2022/11/07 06:13:20;;;;;;;3.25;1.38;;;;;;;9.89;50.19;100643.44;4934083;29;20094;-81
2022/11/07 06:15:48;;;;;;;3.90;1.45;;;;;;;9.90;50.24;100641.56;4933627;29;20266;-81
2022/11/07 06:18:20;;;;;;;4.50;1.50;;;;;;;9.92;50.08;100648.59;4919105;29;20067;-81
2022/11/07 06:20:48;;;;;;;3.33;1.27;;;;;;;9.91;49.89;100655.06;4933597;29;20051;-81
2022/11/07 06:23:16;;;;;;;3.47;1.15;;;;;;;9.95;50.20;100650.22;4931966;28;20048;-81
2022/11/07 06:25:44;;;;;;;4.32;1.60;;;;;;;9.95;50.00;100662.00;4925492;29;20090;-81
2022/11/07 06:28:14;;;;;;;4.00;1.30;;;;;;;9.97;50.19;100657.28;4932678;28;20051;-81
2022/11/07 06:30:42;;;;;;;4.90;1.40;;;;;;;9.97;50.45;100662.75;4933046;29;20074;-82
2022/11/07 06:33:12;;;;;;;3.05;1.35;;;;;;;10.00;49.90;100654.25;4920981;29;20110;-81
2022/11/07 06:35:43;;;;;;;4.40;1.10;;;;;;;10.01;49.90;100661.47;4937584;29;20032;-81
2022/11/07 06:38:12;;;;;;;4.40;1.38;;;;;;;10.02;49.99;100662.34;4928250;28;20067;-81
2022/11/07 06:40:41;;;;;;;3.83;1.48;;;;;;;10.02;49.79;100663.19;4938078;28;20490;-81
2022/11/07 06:43:11;;;;;;;3.17;1.42;;;;;;;10.05;50.05;100664.81;4929139;29;20498;-81
2022/11/07 06:45:40;;;;;;;3.83;1.20;;;;;;;10.06;50.09;100669.28;4932620;29;20036;-80
2022/11/07 06:48:09;;;;;;;4.55;1.30;;;;;;;10.07;50.18;100665.53;4947248;28;20111;-81
2022/11/07 06:50:37;;;;;;;5.10;1.45;;;;;;;10.08;49.96;100675.47;4945821;29;20056;-82
2022/11/07 06:53:09;;;;;;;5.75;1.50;;;;;;;10.11;50.29;100669.72;4940553;29;20051;-81
2022/11/07 06:55:38;;;;;;;3.33;1.40;;;;;;;10.11;49.91;100673.31;4942258;29;20043;-81
2022/11/07 06:58:06;;;;;;;4.93;1.40;;;;;;;10.13;50.36;100673.19;4933944;29;20080;-81
2022/11/07 07:00:35;;;;;;;4.07;1.45;;;;;;;10.14;50.12;100672.19;4927007;29;20044;-81
2022/11/07 07:03:04;;;;;;;5.68;1.60;;;;;;;10.14;50.12;100664.00;4927305;29;20071;-81
2022/11/07 07:05:33;;;;;;;3.60;1.48;;;;;;;10.15;50.15;100669.31;4946032;29;20076;-81
2022/11/07 07:08:01;;;;;;;3.60;1.75;;;;;;;10.17;50.33;100666.44;4921722;29;20035;-81
2022/11/07 07:10:30;;;;;;;5.10;1.40;;;;;;;10.19;49.99;100665.31;4930049;29;20051;-81
2022/11/07 07:13:00;;;;;;;3.45;1.23;;;;;;;10.20;50.04;100674.38;4928141;29;20474;-81
2022/11/07 07:15:28;;;;;;;5.90;1.63;;;;;;;10.21;50.26;100674.25;4928608;29;20048;-81
2022/11/07 07:18:05;;;;;;;3.38;1.50;;;;;;;10.22;50.03;100691.53;4939158;28;20044;-80
2022/11/07 07:20:33;;;;;;;3.35;1.40;;;;;;;10.23;50.20;100682.31;4928936;29;20508;-81
2022/11/07 07:23:03;;;;;;;4.88;1.35;;;;;;;10.25;50.27;100683.03;4943644;28;20064;-81
2022/11/07 07:25:34;;;;;;;3.55;1.13;;;;;;;10.28;49.97;100688.25;4929922;29;20036;-80
2022/11/07 07:28:01;;;;;;;2.25;1.25;;;;;;;10.29;50.41;100681.78;4923254;29;20458;-81
2022/11/07 07:30:29;;;;;;;4.05;1.23;;;;;;;10.29;50.31;100684.50;4932946;29;20146;-81
2022/11/07 07:32:57;;;;;;;3.17;1.35;;;;;;;10.32;50.36;100691.59;4920167;29;20098;-82
2022/11/07 07:35:25;;;;;;;3.75;1.40;;;;;;;10.32;50.30;100689.69;4930847;29;20067;-81
2022/11/07 07:37:53;;;;;;;3.60;1.30;;;;;;;10.33;50.03;100683.22;4946891;28;20529;-82
2022/11/07 07:40:21;;;;;;;4.80;1.50;;;;;;;10.34;50.57;100693.16;4933745;29;20529;-81
2022/11/07 07:42:50;;;;;;;4.15;1.20;;;;;;;10.37;50.03;100692.88;4933005;29;20047;-81
2022/11/07 07:45:18;;;;;;;3.03;1.83;;;;;;;10.37;50.00;100703.84;4928848;29;20047;-81
2022/11/07 07:47:46;;;;;;;3.90;1.50;;;;;;;10.39;50.14;100690.91;4930046;29;20261;-81
2022/11/07 07:50:15;;;;;;;4.30;1.50;;;;;;;10.41;50.56;100691.59;4928961;29;20609;-81
2022/11/07 07:52:43;;;;;;;3.65;1.38;;;;;;;10.42;50.62;100697.94;4941064;28;20048;-81
2022/11/07 07:55:10;;;;;;;3.47;1.27;;;;;;;10.43;50.29;100700.53;4933313;29;20055;-81
2022/11/07 07:57:40;;;;;;;3.97;1.58;;;;;;;10.45;50.19;100714.09;4929850;29;20589;-82
2022/11/07 08:00:11;;;;;;;2.40;1.20;;;;;;;10.47;50.66;100701.16;4922611;29;20055;-81
2022/11/07 08:02:42;;;;;;;3.10;1.23;;;;;;;10.47;50.48;100704.75;4929115;29;20490;-81
2022/11/07 08:05:10;;;;;;;4.03;1.17;;;;;;;10.49;50.74;100708.19;4941557;28;20048;-81
2022/11/07 08:07:45;;;;;;;5.32;1.83;;;;;;;10.54;50.75;100711.44;4946684;28;20047;-81
2022/11/07 08:10:13;;;;;;;3.10;1.30;;;;;;;10.53;50.55;100709.69;4927591;29;20079;-81
2022/11/07 08:13:01;;;;;;;7.80;1.40;;;;;;;10.55;50.95;100715.03;4924005;29;20127;-81
2022/11/07 08:15:30;;;;;;;3.88;1.20;;;;;;;10.59;50.75;100717.34;4930777;29;20036;-81
2022/11/07 08:18:01;;;;;;;2.88;1.23;;;;;;;10.62;50.87;100721.69;4933957;29;20056;-81
2022/11/07 08:20:29;;;;;;;3.95;1.50;;;;;;;10.63;51.27;100720.69;4934690;29;20036;-82
2022/11/07 08:23:01;;;;;;;5.15;1.50;;;;;;;10.67;51.24;100724.88;4943665;28;20075;-82
2022/11/07 08:25:32;;;;;;;4.15;1.60;;;;;;;10.68;51.25;100728.47;4947336;29;20118;-81
2022/11/07 08:28:00;;;;;;;5.15;1.75;;;;;;;10.71;51.25;100733.69;4943091;29;20052;-80
2022/11/07 08:30:30;;;;;;;4.93;1.63;;;;;;;10.74;51.61;100731.50;4942605;29;20052;-81
2022/11/07 08:33:00;;;;;;;4.97;1.70;;;;;;;10.80;51.64;100738.31;4934947;29;20048;-80
2022/11/07 08:35:28;;;;;;;6.32;1.85;;;;;;;10.80;51.55;100736.47;4927255;29;20039;-80
2022/11/07 08:37:56;;;;;;;4.78;1.70;;;;;;;10.84;51.87;100734.28;4917442;29;20052;-80
2022/11/07 08:40:24;;;;;;;4.85;1.60;;;;;;;10.86;51.65;100727.69;4932219;29;20052;-80
2022/11/07 08:42:52;;;;;;;4.50;1.83;;;;;;;10.91;51.56;100749.16;4925328;28;20247;-80
2022/11/07 08:45:20;;;;;;;3.78;1.70;;;;;;;10.93;51.71;100734.31;4923217;29;20169;-80
2022/11/07 08:47:49;;;;;;;5.78;1.70;;;;;;;10.98;51.38;100744.84;4930494;29;20514;-80
2022/11/07 08:50:17;;;;;;;5.40;2.03;;;;;;;11.00;51.33;100745.56;4922468;29;20075;-81
2022/11/07 08:52:45;;;;;;;6.05;1.83;;;;;;;11.03;51.40;100734.34;4933746;29;20055;-80
2022/11/07 08:55:12;;;;;;;5.28;1.42;;;;;;;11.06;51.42;100753.22;4929708;29;20451;-81
2022/11/07 08:57:40;;;;;;;3.65;1.80;;;;;;;11.09;51.41;100743.88;4922621;29;20455;-80
2022/11/07 09:00:09;;;;;;;4.97;1.45;;;;;;;11.13;51.74;100753.56;4922066;29;20052;-80
2022/11/07 09:02:37;;;;;;;4.68;1.73;;;;;;;11.14;51.79;100747.91;4930089;29;20114;-81
2022/11/07 09:05:28;;;;;;;3.38;1.27;;;;;;;11.18;51.47;100746.63;4933828;29;20422;-81
2022/11/07 09:07:55;;;;;;;3.10;1.40;;;;;;;11.20;51.66;100746.50;4924557;29;20464;-80
2022/11/07 09:10:24;;;;;;;4.07;1.20;;;;;;;11.23;51.81;100749.81;4943350;29;20044;-80
2022/11/07 09:12:52;;;;;;;3.45;1.00;;;;;;;11.27;51.38;100747.66;4935740;28;20423;-81
2022/11/07 09:15:20;;;;;;;5.13;1.40;;;;;;;11.28;51.34;100739.31;4949033;29;20040;-80
2022/11/07 09:17:49;;;;;;;4.10;1.17;;;;;;;11.30;51.50;100758.34;4934116;29;20050;-81
2022/11/07 09:20:20;;;;;;;3.75;1.10;;;;;;;11.32;51.24;100746.22;4928929;29;20052;-80
2022/11/07 09:22:50;;;;;;;3.05;1.20;;;;;;;11.35;51.17;100745.94;4928599;29;20047;-80
2022/11/07 09:25:18;;;;;;;2.70;1.02;;;;;;;11.37;51.58;100754.03;4933413;29;20056;-81
2022/11/07 09:27:46;;;;;;;3.17;1.17;;;;;;;11.39;51.29;100757.47;4931436;28;20126;-80
2022/11/07 09:30:14;;;;;;;2.25;1.05;;;;;;;11.41;51.20;100762.81;4931049;29;20470;-80
2022/11/07 09:32:42;;;;;;;5.70;1.20;;;;;;;11.42;51.45;100759.06;4938064;28;20047;-79
2022/11/07 09:35:13;;;;;;;4.63;1.23;;;;;;;11.44;51.64;100762.53;4925899;29;20047;-79
2022/11/07 09:37:41;;;;;;;2.70;1.25;;;;;;;11.45;51.42;100776.09;4933656;28;20039;-80
2022/11/07 09:40:24;;;;;;;4.07;1.20;;;;;;;11.48;52.12;100794.13;4927823;29;20135;-80
2022/11/07 09:43:04;;;;;;;3.40;1.20;;;;;;;11.47;52.27;100796.00;4933749;28;20055;-80
2022/11/07 09:45:38;;;;;;;4.28;1.17;;;;;;;11.48;51.96;100800.47;4938770;29;20123;-80
2022/11/07 09:48:11;;;;;;;4.55;1.50;;;;;;;11.49;52.02;100798.59;4927953;29;20044;-81
2022/11/07 09:50:42;;;;;;;4.50;1.20;;;;;;;11.48;52.09;100794.13;4935663;29;20532;-81
2022/11/07 09:53:14;;;;;;;4.47;1.30;;;;;;;11.50;52.42;100794.84;4941191;29;20043;-82
2022/11/07 09:55:50;;;;;;;3.33;1.30;;;;;;;11.50;52.72;100797.59;4935822;29;20050;-82
2022/11/07 09:58:25;;;;;;;3.20;1.30;;;;;;;11.50;52.64;100806.69;4934058;29;20044;-82
2022/11/07 10:00:54;;;;;;;4.15;1.30;;;;;;;11.48;52.29;100805.94;4919156;29;20052;-80
2022/11/07 10:03:22;;;;;;;3.13;1.30;;;;;;;11.47;52.55;100800.63;4925214;29;20059;-82
2022/11/07 10:06:02;;;;;;;3.70;1.20;;;;;;;11.49;53.11;100810.44;4923901;29;20135;-81
2022/11/07 10:08:40;;;;;;;4.38;1.50;;;;;;;11.47;53.73;100808.84;4927732;29;20055;-81
2022/11/07 10:11:20;;;;;;;3.75;1.20;;;;;;;11.46;53.96;100808.00;4931376;28;20134;-81
2022/11/07 10:13:59;;;;;;;3.05;1.10;;;;;;;11.44;53.75;100811.88;4935025;29;20119;-81
2022/11/07 10:16:46;;;;;;;3.33;1.20;;;;;;;11.44;54.25;100810.00;4926869;29;20131;-82
2022/11/07 10:19:34;;;;;;;2.28;1.02;;;;;;;11.43;53.97;100812.88;4930026;29;20498;-82
2022/11/07 10:22:25;;;;;;;3.58;1.05;;;;;;;11.42;54.45;100806.53;4941254;28;20048;-81
2022/11/07 10:25:04;;;;;;;3.83;1.13;;;;;;;11.42;54.03;100817.50;4946188;28;20532;-81
2022/11/07 10:27:35;;;;;;;3.15;1.23;;;;;;;11.41;53.46;100806.66;4940679;28;20531;-82
2022/11/07 10:30:06;;;;;;;3.53;1.17;;;;;;;11.40;53.72;100808.53;4950127;29;20027;-81
2022/11/07 10:32:41;;;;;;;4.05;1.80;;;;;;;11.42;53.90;100808.41;4937567;29;20138;-81
2022/11/07 10:35:25;;;;;;;4.20;1.38;;;;;;;11.43;54.58;100815.63;4931905;29;20112;-81
2022/11/07 10:37:54;;;;;;;;;;;;;;;11.14;55.01;100802.69;4923855;29;20043;-82
2022/11/07 10:40:24;;;;;;;3.22;0.98;;;;;;;11.36;54.07;100802.47;4936615;29;19982;-82
2022/11/07 10:42:55;;;;;;;3.20;1.40;;;;;;;11.41;53.91;100807.53;4929179;29;20131;-81
2022/11/07 10:45:25;;;;;;;5.25;1.55;;;;;;;11.41;53.87;100807.53;4932663;29;20089;-81
2022/11/07 10:47:58;;;;;;;4.07;1.50;;;;;;;11.45;54.45;100803.50;4942417;28;20043;-81
2022/11/07 10:50:26;;;;;;;;;;;;;;;11.17;55.32;100798.81;4926381;29;20459;-81
2022/11/07 10:52:55;;;;;;;5.13;1.50;;;;;;;11.40;53.88;100799.44;4946246;28;19954;-81
2022/11/07 10:55:24;;;;;;;4.05;1.92;;;;;;;11.44;53.74;100798.16;4932908;29;20123;-82
2022/11/07 10:57:58;;;;;;;4.93;1.50;;;;;;;11.48;54.67;100805.09;4925499;29;20099;-81
2022/11/07 11:00:28;;;;;;;3.00;1.40;;;;;;;11.48;54.16;100794.13;4928788;29;20055;-81
2022/11/07 11:02:57;;;;;;;3.55;1.77;;;;;;;11.50;54.50;100794.84;4920401;29;20052;-81
2022/11/07 11:05:28;;;;;;;5.13;1.80;;;;;;;11.53;54.29;100800.06;4926223;29;20155;-81
2022/11/07 11:08:07;;;;;;;5.30;1.77;;;;;;;11.55;54.17;100798.91;4923202;29;20056;-81
2022/11/07 11:10:39;;;;;;;4.68;1.90;;;;;;;11.58;54.68;100804.09;4933000;29;20558;-82
2022/11/07 11:13:27;;;;;;;3.63;1.42;;;;;;;11.58;54.88;100804.09;4937219;29;20044;-82
2022/11/07 11:15:55;;;;;;;4.82;1.75;;;;;;;11.60;54.38;100799.34;4920649;29;20466;-81
2022/11/07 11:18:31;;;;;;;4.50;1.90;;;;;;;11.63;54.08;100796.38;4935436;29;20050;-81
2022/11/07 11:21:01;;;;;;;4.05;1.25;;;;;;;11.67;54.35;100786.84;4930282;29;20055;-82
2022/11/07 11:23:31;;;;;;;6.15;1.50;;;;;;;11.70;54.44;100796.66;4925659;29;20075;-81
2022/11/07 11:26:01;;;;;;;3.80;1.70;;;;;;;11.71;54.37;100782.81;4933480;29;20083;-81
2022/11/07 11:28:34;;;;;;;4.85;1.35;;;;;;;11.75;54.67;100786.09;4925553;29;20534;-81
2022/11/07 11:31:03;;;;;;;;;;;;;;;11.50;54.95;100792.13;4931245;28;20070;-81
2022/11/07 11:33:40;;;;;;;3.20;1.30;;;;;;;11.77;54.61;100789.59;4920240;28;20409;-81
2022/11/07 11:36:14;;;;;;;4.32;1.45;;;;;;;11.82;54.10;100786.41;4918296;28;20485;-81
2022/11/07 11:38:49;;;;;;;5.60;1.52;;;;;;;11.84;53.86;100793.47;4928497;29;20043;-81
2022/11/07 11:41:21;;;;;;;3.88;1.40;;;;;;;11.90;54.11;100794.75;4925701;29;20244;-80
2022/11/07 11:43:58;;;;;;;3.88;1.23;;;;;;;11.90;53.73;100790.16;4931472;29;20074;-81
2022/11/07 11:46:31;;;;;;;7.78;2.38;;;;;;;11.94;53.79;100788.88;4924276;29;20114;-81
2022/11/07 11:49:05;;;;;;;3.40;1.63;;;;;;;11.96;53.71;100789.59;4926568;29;20043;-81
2022/11/07 11:51:39;;;;;;;4.88;1.70;;;;;;;12.00;53.63;100788.28;4931448;28;20047;-80